• Join FlightAware (Why Join?)
  • Login
  • US Flag 
03:29AM EDT


 

Airport Tracker/Info


-or-


 

Live Flight TrackerFlight Track Log ✈ KAP927 ✈ 02-May-2013 ✈ KALB - KOGS

Flight Track Log - Related Links

Times and Time Zones

All times are in EDT time to prevent confusion due to time zone crossing. See the KAP927 flight status page for this flight to view local times or setup timezone preferences in your user account.

Time Position Orientation Groundspeed Altitude Reporting Facility
EDT Latitude Longitude Course Direction KTS MPH feet Rate Location/Type
06:32PM 42.7839 -73.8150 329° Northwest 116 133 1,200  Level Boston Center
06:33PM 42.8128 -73.8383 329° Northwest 117 135 1,800 540 Climbing Boston Center
06:34PM 42.8397 -73.8614 328° Northwest 115 132 2,400 540 Climbing Boston Center
06:35PM 42.8683 -73.8878 326° Northwest 119 137 2,900 540 Climbing Boston Center
06:36PM 42.8953 -73.9081 331° Northwest 123 142 3,500 540 Climbing Boston Center
06:37PM 42.9283 -73.9344 330° Northwest 122 140 4,100 420 Climbing Boston Center
06:38PM 42.9592 -73.9636 325° Northwest 125 144 4,500 420 Climbing Boston Center
06:39PM 42.9858 -73.9897 324° Northwest 129 148 5,000 480 Climbing Boston Center
06:40PM 43.0189 -74.0133 332° Northwest 131 151 5,500 420 Climbing Boston Center
06:41PM 43.0478 -74.0397 326° Northwest 129 148 5,900 540 Climbing Boston Center
06:42PM 43.0786 -74.0661 328° Northwest 125 144 6,600 540 Climbing Boston Center
06:43PM 43.1075 -74.0894 329° Northwest 128 147 7,100 480 Climbing Boston Center
06:44PM 43.1425 -74.1161 331° Northwest 128 147 7,600 420 Climbing Boston Center
06:45PM 43.1714 -74.1425 326° Northwest 128 147 8,000 420 Climbing Boston Center
06:46PM 43.2042 -74.1692 329° Northwest 128 147 8,500 240 Climbing Boston Center
06:47PM 43.2372 -74.1956 330° Northwest 133 153 8,500  Level Boston Center
06:48PM 43.2764 -74.2281 329° Northwest 149 171 8,500  Level Boston Center
06:49PM 43.3092 -74.2578 327° Northwest 155 178 8,500  Level Boston Center
06:51PM 43.3853 -74.3228 328° Northwest 165 190 8,500  Level Boston Center
06:52PM 43.4264 -74.3583 328° Northwest 165 190 8,600  Climbing Boston Center
06:53PM 43.4633 -74.3911 327° Northwest 165 190 8,500 -60 Descending Boston Center
06:54PM 43.5025 -74.4208 331° Northwest 165 190 8,500  Level Boston Center
06:55PM 43.5394 -74.4536 327° Northwest 165 190 8,600  Climbing Boston Center
06:56PM 43.5783 -74.4892 326° Northwest 165 190 8,500 -60 Descending Boston Center
06:57PM 43.6172 -74.5192 331° Northwest 165 190 8,500  Level Boston Center
06:58PM 43.6564 -74.5522 329° Northwest 165 190 8,500  Level Boston Center
06:59PM 43.6933 -74.5822 330° Northwest 165 190 8,500  Level Boston Center
07:00PM 43.7281 -74.6122 328° Northwest 165 190 8,500  Level Boston Center
07:01PM 43.7669 -74.6481 326° Northwest 165 190 8,600  Climbing Boston Center
07:02PM 43.8039 -74.6839 325° Northwest 165 190 8,500 -60 Descending Boston Center
07:03PM 43.8408 -74.7142 329° Northwest 165 190 8,500  Level Boston Center
07:04PM 43.8797 -74.7503 326° Northwest 165 190 8,600  Climbing Boston Center
07:05PM 43.9186 -74.7833 329° Northwest 165 190 8,600  Level Boston Center
07:06PM 43.9656 -74.8256 327° Northwest 165 190 8,600  Level Boston Center
07:07PM 44.0067 -74.8619 328° Northwest 165 190 8,600 -120 Level Boston Center
07:08PM 44.0456 -74.8981 326° Northwest 165 190 8,400 -360 Descending Boston Center
07:09PM 44.0864 -74.9375 325° Northwest 170 196 7,900 -600 Descending Boston Center
07:10PM 44.1333 -74.9742 331° Northwest 180 207 7,300 -540 Descending Boston Center
07:11PM 44.1783 -75.0108 330° Northwest 180 207 6,900 -540 Descending Boston Center
07:12PM 44.2214 -75.0475 329° Northwest 180 207 6,300 -540 Descending Boston Center
07:13PM 44.2622 -75.0811 329° Northwest 180 207 5,900 -540 Descending Boston Center
07:14PM 44.3031 -75.1147 330° Northwest 174 200 5,300 -600 Descending Boston Center
07:15PM 44.3439 -75.1514 327° Northwest 174 200 4,800 -480 Descending Boston Center
07:16PM 44.3828 -75.1853 328° Northwest 174 200 4,400 -420 Descending Boston Center
07:17PM 44.4236 -75.2161 332° Northwest 163 188 4,000 -360 Descending Boston Center
07:18PM 44.4544 -75.2408 330° Northwest 163 188 3,700 -420 Descending Boston Center
07:19PM 44.5011 -75.2867 325° Northwest 168 193 3,200 -480 Descending Boston Center
07:20PM 44.5400 -75.3208 328° Northwest 168 193 2,800 -420 Descending Boston Center